sensor_id;sensor_type;location;lat;lon;timestamp;pressure;altitude;pressure_sealevel;temperature;humidity
19553;BME280;9420;50.876;7.012;2023-04-30T00:00:59;101627.66;;;46.50;18.35
19553;BME280;9420;50.876;7.012;2023-04-30T00:03:26;101626.16;;;46.42;18.62
19553;BME280;9420;50.876;7.012;2023-04-30T00:05:55;101629.97;;;46.15;18.45
19553;BME280;9420;50.876;7.012;2023-04-30T00:08:22;101628.06;;;46.64;18.21
19553;BME280;9420;50.876;7.012;2023-04-30T00:10:49;101625.13;;;45.72;18.65
19553;BME280;9420;50.876;7.012;2023-04-30T00:13:16;101629.50;;;46.45;18.54
19553;BME280;9420;50.876;7.012;2023-04-30T00:15:43;101632.38;;;46.28;18.28
19553;BME280;9420;50.876;7.012;2023-04-30T00:18:10;101632.88;;;46.47;18.48
19553;BME280;9420;50.876;7.012;2023-04-30T00:20:37;101640.97;;;46.26;18.50
19553;BME280;9420;50.876;7.012;2023-04-30T00:23:05;101637.69;;;46.73;18.02
19553;BME280;9420;50.876;7.012;2023-04-30T00:25:32;101647.66;;;46.47;18.41
19553;BME280;9420;50.876;7.012;2023-04-30T00:28:00;101646.88;;;46.52;18.30
19553;BME280;9420;50.876;7.012;2023-04-30T00:30:27;101647.56;;;46.20;18.30
19553;BME280;9420;50.876;7.012;2023-04-30T00:32:53;101639.75;;;46.61;18.64
19553;BME280;9420;50.876;7.012;2023-04-30T00:35:20;101647.91;;;46.02;18.16
19553;BME280;9420;50.876;7.012;2023-04-30T00:37:47;101643.59;;;45.45;18.56
19553;BME280;9420;50.876;7.012;2023-04-30T00:40:16;101651.84;;;45.73;18.43
19553;BME280;9420;50.876;7.012;2023-04-30T00:42:43;101655.00;;;45.93;18.33
19553;BME280;9420;50.876;7.012;2023-04-30T00:45:10;101647.03;;;46.23;17.87
19553;BME280;9420;50.876;7.012;2023-04-30T00:47:38;101640.16;;;46.48;18.25
19553;BME280;9420;50.876;7.012;2023-04-30T00:50:06;101644.25;;;46.23;18.14
19553;BME280;9420;50.876;7.012;2023-04-30T00:52:34;101649.75;;;45.47;18.22
19553;BME280;9420;50.876;7.012;2023-04-30T00:55:01;101651.28;;;45.54;18.40
19553;BME280;9420;50.876;7.012;2023-04-30T00:57:30;101649.00;;;46.23;18.14
19553;BME280;9420;50.876;7.012;2023-04-30T00:59:58;101643.50;;;46.06;18.17
19553;BME280;9420;50.876;7.012;2023-04-30T01:02:25;101653.06;;;46.15;18.09
19553;BME280;9420;50.876;7.012;2023-04-30T01:04:52;101646.38;;;45.45;18.04
19553;BME280;9420;50.876;7.012;2023-04-30T01:07:19;101639.19;;;45.82;18.17
19553;BME280;9420;50.876;7.012;2023-04-30T01:09:47;101643.75;;;46.26;18.02
19553;BME280;9420;50.876;7.012;2023-04-30T01:12:22;101645.69;;;46.04;18.24
19553;BME280;9420;50.876;7.012;2023-04-30T01:15:03;101641.28;;;46.08;17.94
19553;BME280;9420;50.876;7.012;2023-04-30T01:17:39;101643.16;;;46.24;18.24
19553;BME280;9420;50.876;7.012;2023-04-30T01:20:09;101638.72;;;46.45;17.95
19553;BME280;9420;50.876;7.012;2023-04-30T01:22:54;101642.97;;;46.09;17.80
19553;BME280;9420;50.876;7.012;2023-04-30T01:25:52;101641.16;;;45.65;18.46
19553;BME280;9420;50.876;7.012;2023-04-30T01:28:22;101657.28;;;45.02;18.28
19553;BME280;9420;50.876;7.012;2023-04-30T01:30:50;101656.00;;;44.41;18.38
19553;BME280;9420;50.876;7.012;2023-04-30T01:33:17;101648.16;;;45.06;18.12
19553;BME280;9420;50.876;7.012;2023-04-30T01:36:17;101652.06;;;46.05;17.87
19553;BME280;9420;50.876;7.012;2023-04-30T01:39:04;101653.25;;;45.54;18.30
19553;BME280;9420;50.876;7.012;2023-04-30T01:41:39;101650.34;;;45.49;18.07
19553;BME280;9420;50.876;7.012;2023-04-30T01:44:40;101649.19;;;45.61;17.97
19553;BME280;9420;50.876;7.012;2023-04-30T01:47:30;101649.22;;;45.17;18.26
19553;BME280;9420;50.876;7.012;2023-04-30T01:50:12;101660.38;;;44.14;17.98
19553;BME280;9420;50.876;7.012;2023-04-30T01:52:46;101649.91;;;45.24;18.05
19553;BME280;9420;50.876;7.012;2023-04-30T01:55:20;101657.59;;;44.14;18.12
19553;BME280;9420;50.876;7.012;2023-04-30T01:57:55;101660.13;;;44.27;18.10
19553;BME280;9420;50.876;7.012;2023-04-30T02:00:25;101649.38;;;44.70;18.04
19553;BME280;9420;50.876;7.012;2023-04-30T02:02:52;101659.25;;;45.18;17.94
19553;BME280;9420;50.876;7.012;2023-04-30T02:05:19;101657.13;;;44.68;18.06
19553;BME280;9420;50.876;7.012;2023-04-30T02:07:49;101662.63;;;44.91;17.99
19553;BME280;9420;50.876;7.012;2023-04-30T02:10:21;101660.16;;;44.67;18.09
19553;BME280;9420;50.876;7.012;2023-04-30T02:12:48;101663.97;;;44.49;17.91
19553;BME280;9420;50.876;7.012;2023-04-30T02:15:15;101663.66;;;44.74;18.13
19553;BME280;9420;50.876;7.012;2023-04-30T02:17:43;101664.66;;;44.96;18.00
19553;BME280;9420;50.876;7.012;2023-04-30T02:20:11;101660.94;;;44.90;18.08
19553;BME280;9420;50.876;7.012;2023-04-30T02:22:38;101668.81;;;44.42;18.42
19553;BME280;9420;50.876;7.012;2023-04-30T02:25:06;101657.25;;;44.85;18.11
19553;BME280;9420;50.876;7.012;2023-04-30T02:27:34;101660.09;;;44.50;17.93
19553;BME280;9420;50.876;7.012;2023-04-30T02:30:01;101659.22;;;44.61;18.08
19553;BME280;9420;50.876;7.012;2023-04-30T02:32:29;101655.56;;;44.21;18.25
19553;BME280;9420;50.876;7.012;2023-04-30T02:34:57;101651.38;;;44.58;17.91
19553;BME280;9420;50.876;7.012;2023-04-30T02:37:24;101650.56;;;44.58;18.10
19553;BME280;9420;50.876;7.012;2023-04-30T02:39:52;101653.06;;;45.16;17.91
19553;BME280;9420;50.876;7.012;2023-04-30T02:42:19;101654.88;;;44.93;18.55
19553;BME280;9420;50.876;7.012;2023-04-30T02:44:46;101650.50;;;44.69;18.05
19553;BME280;9420;50.876;7.012;2023-04-30T02:47:13;101661.97;;;44.22;18.33
19553;BME280;9420;50.876;7.012;2023-04-30T02:49:40;101664.56;;;44.40;18.25
19553;BME280;9420;50.876;7.012;2023-04-30T02:52:09;101668.44;;;44.39;18.14
19553;BME280;9420;50.876;7.012;2023-04-30T02:54:36;101666.75;;;44.38;18.14
19553;BME280;9420;50.876;7.012;2023-04-30T02:57:03;101658.06;;;44.85;17.89
19553;BME280;9420;50.876;7.012;2023-04-30T02:59:30;101672.09;;;44.28;18.16
19553;BME280;9420;50.876;7.012;2023-04-30T03:01:58;101659.53;;;44.76;18.14
19553;BME280;9420;50.876;7.012;2023-04-30T03:04:25;101666.31;;;44.80;18.48
19553;BME280;9420;50.876;7.012;2023-04-30T03:06:52;101654.38;;;44.97;17.85
19553;BME280;9420;50.876;7.012;2023-04-30T03:09:20;101660.94;;;44.51;17.98
19553;BME280;9420;50.876;7.012;2023-04-30T03:11:47;101675.00;;;44.21;18.18
19553;BME280;9420;50.876;7.012;2023-04-30T03:14:14;101670.81;;;44.58;18.01
19553;BME280;9420;50.876;7.012;2023-04-30T03:16:41;101670.13;;;44.91;18.08
19553;BME280;9420;50.876;7.012;2023-04-30T03:19:08;101675.50;;;44.69;18.08
19553;BME280;9420;50.876;7.012;2023-04-30T03:21:36;101668.88;;;44.99;18.01
19553;BME280;9420;50.876;7.012;2023-04-30T03:24:03;101670.56;;;45.00;17.81
19553;BME280;9420;50.876;7.012;2023-04-30T03:26:32;101669.56;;;44.26;18.00
19553;BME280;9420;50.876;7.012;2023-04-30T03:28:59;101673.19;;;43.92;18.14
19553;BME280;9420;50.876;7.012;2023-04-30T03:31:26;101669.78;;;43.67;18.35
19553;BME280;9420;50.876;7.012;2023-04-30T03:33:53;101665.66;;;43.58;18.35
19553;BME280;9420;50.876;7.012;2023-04-30T03:36:20;101669.72;;;43.43;18.43
19553;BME280;9420;50.876;7.012;2023-04-30T03:38:47;101670.94;;;43.48;18.03
19553;BME280;9420;50.876;7.012;2023-04-30T03:41:14;101667.69;;;43.09;18.14
19553;BME280;9420;50.876;7.012;2023-04-30T03:43:42;101671.22;;;43.16;18.27
19553;BME280;9420;50.876;7.012;2023-04-30T03:46:09;101668.34;;;42.93;17.89
19553;BME280;9420;50.876;7.012;2023-04-30T03:48:36;101670.25;;;43.22;18.07
19553;BME280;9420;50.876;7.012;2023-04-30T03:51:03;101670.13;;;43.17;18.16
19553;BME280;9420;50.876;7.012;2023-04-30T03:53:30;101675.66;;;43.59;17.71
19553;BME280;9420;50.876;7.012;2023-04-30T03:55:58;101668.28;;;43.29;18.06
19553;BME280;9420;50.876;7.012;2023-04-30T03:58:25;101664.88;;;43.27;17.95
19553;BME280;9420;50.876;7.012;2023-04-30T04:00:53;101669.19;;;43.23;18.13
19553;BME280;9420;50.876;7.012;2023-04-30T04:03:20;101669.13;;;43.41;18.10
19553;BME280;9420;50.876;7.012;2023-04-30T04:05:48;101667.66;;;43.27;17.98
19553;BME280;9420;50.876;7.012;2023-04-30T04:08:15;101667.84;;;43.79;18.06
19553;BME280;9420;50.876;7.012;2023-04-30T04:10:42;101660.75;;;43.83;17.66
19553;BME280;9420;50.876;7.012;2023-04-30T04:13:09;101667.63;;;44.15;17.83
19553;BME280;9420;50.876;7.012;2023-04-30T04:15:36;101667.50;;;44.10;17.73
19553;BME280;9420;50.876;7.012;2023-04-30T04:18:04;101667.84;;;44.25;17.64
19553;BME280;9420;50.876;7.012;2023-04-30T04:20:33;101669.56;;;43.91;17.76
19553;BME280;9420;50.876;7.012;2023-04-30T04:23:00;101670.53;;;43.74;17.83
19553;BME280;9420;50.876;7.012;2023-04-30T04:25:27;101674.50;;;43.78;17.87
19553;BME280;9420;50.876;7.012;2023-04-30T04:27:54;101679.00;;;43.49;18.10
19553;BME280;9420;50.876;7.012;2023-04-30T04:30:21;101684.44;;;43.56;18.06
19553;BME280;9420;50.876;7.012;2023-04-30T04:32:48;101687.31;;;44.02;17.84
19553;BME280;9420;50.876;7.012;2023-04-30T04:35:20;101688.88;;;44.21;17.99
19553;BME280;9420;50.876;7.012;2023-04-30T04:37:47;101679.47;;;44.22;17.86
19553;BME280;9420;50.876;7.012;2023-04-30T04:40:14;101686.59;;;44.06;18.02
19553;BME280;9420;50.876;7.012;2023-04-30T04:42:41;101689.13;;;44.08;17.97
19553;BME280;9420;50.876;7.012;2023-04-30T04:45:09;101691.16;;;44.01;17.98
19553;BME280;9420;50.876;7.012;2023-04-30T04:47:36;101689.81;;;43.92;18.08
19553;BME280;9420;50.876;7.012;2023-04-30T04:50:04;101690.75;;;43.63;18.21
19553;BME280;9420;50.876;7.012;2023-04-30T04:52:33;101686.72;;;43.47;17.87
19553;BME280;9420;50.876;7.012;2023-04-30T04:55:01;101691.22;;;43.48;18.22
19553;BME280;9420;50.876;7.012;2023-04-30T04:57:28;101683.53;;;43.85;17.95
19553;BME280;9420;50.876;7.012;2023-04-30T04:59:55;101688.59;;;43.65;18.16
19553;BME280;9420;50.876;7.012;2023-04-30T05:02:22;101689.34;;;43.72;18.34
19553;BME280;9420;50.876;7.012;2023-04-30T05:04:49;101680.91;;;43.90;17.92
19553;BME280;9420;50.876;7.012;2023-04-30T05:07:17;101690.44;;;43.94;17.91
19553;BME280;9420;50.876;7.012;2023-04-30T05:09:45;101683.81;;;44.81;18.07
19553;BME280;9420;50.876;7.012;2023-04-30T05:12:13;101693.31;;;44.97;17.80
19553;BME280;9420;50.876;7.012;2023-04-30T05:14:40;101686.34;;;45.39;17.58
19553;BME280;9420;50.876;7.012;2023-04-30T05:17:08;101691.91;;;45.39;17.53
19553;BME280;9420;50.876;7.012;2023-04-30T05:19:35;101691.47;;;45.30;17.69
19553;BME280;9420;50.876;7.012;2023-04-30T05:22:02;101697.28;;;45.29;17.99
19553;BME280;9420;50.876;7.012;2023-04-30T05:24:30;101701.88;;;45.68;18.58
19553;BME280;9420;50.876;7.012;2023-04-30T05:26:58;101705.16;;;45.98;18.11
19553;BME280;9420;50.876;7.012;2023-04-30T05:29:27;101707.03;;;46.48;17.90
19553;BME280;9420;50.876;7.012;2023-04-30T05:31:54;101715.34;;;46.86;18.28
19553;BME280;9420;50.876;7.012;2023-04-30T05:34:21;101713.03;;;46.61;18.24
19553;BME280;9420;50.876;7.012;2023-04-30T05:36:48;101725.25;;;46.77;18.12
19553;BME280;9420;50.876;7.012;2023-04-30T05:39:15;101718.69;;;47.09;18.10
19553;BME280;9420;50.876;7.012;2023-04-30T05:41:42;101725.59;;;47.02;17.84
19553;BME280;9420;50.876;7.012;2023-04-30T05:44:11;101720.38;;;47.37;17.41
19553;BME280;9420;50.876;7.012;2023-04-30T05:46:38;101725.47;;;47.45;17.94
19553;BME280;9420;50.876;7.012;2023-04-30T05:49:05;101722.91;;;47.70;17.53
19553;BME280;9420;50.876;7.012;2023-04-30T05:51:32;101723.34;;;47.84;17.69
19553;BME280;9420;50.876;7.012;2023-04-30T05:53:59;101727.56;;;47.92;17.64
19553;BME280;9420;50.876;7.012;2023-04-30T05:56:26;101729.47;;;48.18;17.71
19553;BME280;9420;50.876;7.012;2023-04-30T05:58:53;101738.38;;;47.51;17.79
19553;BME280;9420;50.876;7.012;2023-04-30T06:01:21;101732.00;;;47.87;18.06
19553;BME280;9420;50.876;7.012;2023-04-30T06:03:49;101734.91;;;47.71;18.19
19553;BME280;9420;50.876;7.012;2023-04-30T06:06:16;101728.88;;;48.62;17.52
19553;BME280;9420;50.876;7.012;2023-04-30T06:08:43;101719.53;;;47.68;17.83
19553;BME280;9420;50.876;7.012;2023-04-30T06:11:11;101720.66;;;47.09;18.34
19553;BME280;9420;50.876;7.012;2023-04-30T06:13:39;101716.72;;;47.63;18.53
19553;BME280;9420;50.876;7.012;2023-04-30T06:16:07;101722.91;;;48.44;17.79
19553;BME280;9420;50.876;7.012;2023-04-30T06:18:35;101716.47;;;48.43;18.04
19553;BME280;9420;50.876;7.012;2023-04-30T06:21:03;101718.88;;;48.25;18.33
19553;BME280;9420;50.876;7.012;2023-04-30T06:23:30;101710.34;;;49.13;17.70
19553;BME280;9420;50.876;7.012;2023-04-30T06:25:57;101719.06;;;47.18;18.45
19553;BME280;9420;50.876;7.012;2023-04-30T06:28:24;101719.59;;;48.52;17.76
19553;BME280;9420;50.876;7.012;2023-04-30T06:30:51;101719.63;;;49.29;17.19
19553;BME280;9420;50.876;7.012;2023-04-30T06:33:19;101722.41;;;49.34;17.39
19553;BME280;9420;50.876;7.012;2023-04-30T06:35:47;101720.44;;;49.29;17.12
19553;BME280;9420;50.876;7.012;2023-04-30T06:38:15;101720.88;;;48.86;17.56
19553;BME280;9420;50.876;7.012;2023-04-30T06:40:43;101720.69;;;48.46;17.63
19553;BME280;9420;50.876;7.012;2023-04-30T06:43:10;101717.69;;;48.11;17.53
19553;BME280;9420;50.876;7.012;2023-04-30T06:45:38;101716.47;;;49.10;17.30
19553;BME280;9420;50.876;7.012;2023-04-30T06:48:05;101723.69;;;48.91;17.40
19553;BME280;9420;50.876;7.012;2023-04-30T06:50:32;101721.06;;;49.52;17.11
19553;BME280;9420;50.876;7.012;2023-04-30T06:53:00;101716.84;;;49.64;17.07
19553;BME280;9420;50.876;7.012;2023-04-30T06:55:28;101720.72;;;49.38;17.25
19553;BME280;9420;50.876;7.012;2023-04-30T06:57:55;101721.81;;;48.45;18.09
19553;BME280;9420;50.876;7.012;2023-04-30T07:00:22;101723.28;;;49.50;17.22
19553;BME280;9420;50.876;7.012;2023-04-30T07:02:50;101712.66;;;49.92;16.97
19553;BME280;9420;50.876;7.012;2023-04-30T07:05:17;101719.34;;;50.16;17.01
19553;BME280;9420;50.876;7.012;2023-04-30T07:07:44;101699.44;;;50.07;16.82
19553;BME280;9420;50.876;7.012;2023-04-30T07:10:15;101702.53;;;49.81;17.05
19553;BME280;9420;50.876;7.012;2023-04-30T07:12:42;101698.63;;;49.36;16.97
19553;BME280;9420;50.876;7.012;2023-04-30T07:15:10;101700.31;;;50.82;17.04
19553;BME280;9420;50.876;7.012;2023-04-30T07:17:37;101699.00;;;50.64;16.59
19553;BME280;9420;50.876;7.012;2023-04-30T07:20:08;101696.34;;;50.09;16.97
19553;BME280;9420;50.876;7.012;2023-04-30T07:22:36;101706.38;;;50.40;16.94
19553;BME280;9420;50.876;7.012;2023-04-30T07:25:05;101705.06;;;50.87;16.41
19553;BME280;9420;50.876;7.012;2023-04-30T07:27:34;101696.00;;;51.00;16.51
19553;BME280;9420;50.876;7.012;2023-04-30T07:30:01;101707.44;;;51.08;16.09
19553;BME280;9420;50.876;7.012;2023-04-30T07:32:28;101703.66;;;50.89;16.60
19553;BME280;9420;50.876;7.012;2023-04-30T07:34:55;101705.81;;;48.97;16.96
19553;BME280;9420;50.876;7.012;2023-04-30T07:37:22;101703.94;;;49.33;16.99
19553;BME280;9420;50.876;7.012;2023-04-30T07:39:49;101700.13;;;51.17;16.32
19553;BME280;9420;50.876;7.012;2023-04-30T07:42:16;101703.72;;;51.23;16.31
19553;BME280;9420;50.876;7.012;2023-04-30T07:44:45;101688.84;;;51.90;16.64
19553;BME280;9420;50.876;7.012;2023-04-30T07:47:13;101710.22;;;51.13;16.72
19553;BME280;9420;50.876;7.012;2023-04-30T07:49:40;101703.19;;;50.67;16.83
19553;BME280;9420;50.876;7.012;2023-04-30T07:52:07;101698.03;;;50.89;16.59
19553;BME280;9420;50.876;7.012;2023-04-30T07:54:37;101705.38;;;49.71;17.06
19553;BME280;9420;50.876;7.012;2023-04-30T07:57:05;101704.06;;;50.62;16.92
19553;BME280;9420;50.876;7.012;2023-04-30T07:59:32;101709.03;;;50.75;17.16
19553;BME280;9420;50.876;7.012;2023-04-30T08:02:00;101696.38;;;51.27;16.96
19553;BME280;9420;50.876;7.012;2023-04-30T08:04:28;101700.56;;;52.68;16.39
19553;BME280;9420;50.876;7.012;2023-04-30T08:06:55;101696.41;;;50.73;16.53
19553;BME280;9420;50.876;7.012;2023-04-30T08:09:22;101700.34;;;49.88;17.25
19553;BME280;9420;50.876;7.012;2023-04-30T08:11:49;101696.75;;;52.11;16.08
19553;BME280;9420;50.876;7.012;2023-04-30T08:14:18;101699.78;;;52.20;16.15
19553;BME280;9420;50.876;7.012;2023-04-30T08:16:46;101702.28;;;52.45;15.64
19553;BME280;9420;50.876;7.012;2023-04-30T08:19:14;101701.34;;;52.31;16.75
19553;BME280;9420;50.876;7.012;2023-04-30T08:21:41;101702.38;;;52.11;16.20
19553;BME280;9420;50.876;7.012;2023-04-30T08:24:08;101692.31;;;52.76;15.85
19553;BME280;9420;50.876;7.012;2023-04-30T08:26:35;101698.78;;;51.43;16.39
19553;BME280;9420;50.876;7.012;2023-04-30T08:29:02;101698.53;;;52.02;16.16
19553;BME280;9420;50.876;7.012;2023-04-30T08:31:29;101701.66;;;53.46;15.70
19553;BME280;9420;50.876;7.012;2023-04-30T08:33:56;101699.75;;;52.67;15.91
19553;BME280;9420;50.876;7.012;2023-04-30T08:36:25;101695.47;;;52.27;15.83
19553;BME280;9420;50.876;7.012;2023-04-30T08:38:52;101691.25;;;53.28;15.71
19553;BME280;9420;50.876;7.012;2023-04-30T08:41:25;101692.16;;;52.44;15.46
19553;BME280;9420;50.876;7.012;2023-04-30T08:43:53;101678.59;;;53.44;15.42
19553;BME280;9420;50.876;7.012;2023-04-30T08:46:21;101692.63;;;51.75;16.39
19553;BME280;9420;50.876;7.012;2023-04-30T08:48:50;101683.25;;;53.35;15.85
19553;BME280;9420;50.876;7.012;2023-04-30T08:51:17;101676.19;;;53.38;15.13
19553;BME280;9420;50.876;7.012;2023-04-30T08:53:46;101684.75;;;53.46;15.26
19553;BME280;9420;50.876;7.012;2023-04-30T08:56:15;101676.88;;;54.08;15.00
19553;BME280;9420;50.876;7.012;2023-04-30T08:58:42;101677.94;;;54.12;15.06
19553;BME280;9420;50.876;7.012;2023-04-30T09:01:09;101664.78;;;53.61;15.44
19553;BME280;9420;50.876;7.012;2023-04-30T09:03:36;101672.28;;;53.52;15.42
19553;BME280;9420;50.876;7.012;2023-04-30T09:06:03;101683.19;;;50.78;15.54
19553;BME280;9420;50.876;7.012;2023-04-30T09:08:41;101679.13;;;53.46;14.87
19553;BME280;9420;50.876;7.012;2023-04-30T09:11:24;101679.50;;;50.29;15.90
19553;BME280;9420;50.876;7.012;2023-04-30T09:13:54;101666.09;;;53.18;14.87
19553;BME280;9420;50.876;7.012;2023-04-30T09:16:23;101668.09;;;54.36;14.86
19553;BME280;9420;50.876;7.012;2023-04-30T09:18:50;101660.03;;;55.29;13.98
19553;BME280;9420;50.876;7.012;2023-04-30T09:21:31;101658.78;;;55.35;14.03
19553;BME280;9420;50.876;7.012;2023-04-30T09:24:00;101658.84;;;52.33;14.98
19553;BME280;9420;50.876;7.012;2023-04-30T09:26:33;101647.66;;;53.07;15.27
19553;BME280;9420;50.876;7.012;2023-04-30T09:29:00;101648.28;;;54.28;14.71
19553;BME280;9420;50.876;7.012;2023-04-30T09:31:33;101639.53;;;55.37;14.24
19553;BME280;9420;50.876;7.012;2023-04-30T09:34:00;101628.72;;;55.16;14.15
19553;BME280;9420;50.876;7.012;2023-04-30T09:36:27;101635.25;;;55.48;14.24
19553;BME280;9420;50.876;7.012;2023-04-30T09:38:55;101629.69;;;54.27;14.71
19553;BME280;9420;50.876;7.012;2023-04-30T09:41:24;101627.44;;;53.69;14.12
19553;BME280;9420;50.876;7.012;2023-04-30T09:43:54;101626.03;;;53.86;14.12
19553;BME280;9420;50.876;7.012;2023-04-30T09:46:31;101623.94;;;54.05;14.14
19553;BME280;9420;50.876;7.012;2023-04-30T09:49:00;101620.50;;;55.06;13.93
19553;BME280;9420;50.876;7.012;2023-04-30T09:51:28;101625.44;;;54.65;13.53
19553;BME280;9420;50.876;7.012;2023-04-30T09:53:55;101624.88;;;55.96;13.71
19553;BME280;9420;50.876;7.012;2023-04-30T09:56:24;101625.69;;;53.41;14.41
19553;BME280;9420;50.876;7.012;2023-04-30T09:58:55;101609.28;;;54.57;14.01
19553;BME280;9420;50.876;7.012;2023-04-30T10:01:26;101613.59;;;54.14;14.31
19553;BME280;9420;50.876;7.012;2023-04-30T10:03:53;101613.53;;;55.57;13.14
19553;BME280;9420;50.876;7.012;2023-04-30T10:06:21;101609.44;;;55.93;13.52
19553;BME280;9420;50.876;7.012;2023-04-30T10:08:52;101597.81;;;55.73;14.06
19553;BME280;9420;50.876;7.012;2023-04-30T10:11:26;101611.06;;;56.59;13.56
19553;BME280;9420;50.876;7.012;2023-04-30T10:14:02;101593.34;;;57.48;12.65
19553;BME280;9420;50.876;7.012;2023-04-30T10:16:46;101599.50;;;54.14;14.02
19553;BME280;9420;50.876;7.012;2023-04-30T10:19:19;101591.25;;;52.80;13.58
19553;BME280;9420;50.876;7.012;2023-04-30T10:21:48;101590.53;;;55.72;13.18
19553;BME280;9420;50.876;7.012;2023-04-30T10:24:18;101580.03;;;56.20;12.67
19553;BME280;9420;50.876;7.012;2023-04-30T10:26:47;101570.28;;;57.96;12.39
19553;BME280;9420;50.876;7.012;2023-04-30T10:29:17;101576.06;;;57.07;12.89
19553;BME280;9420;50.876;7.012;2023-04-30T10:31:47;101581.78;;;55.90;13.17
19553;BME280;9420;50.876;7.012;2023-04-30T10:34:24;101578.09;;;54.62;13.23
19553;BME280;9420;50.876;7.012;2023-04-30T10:36:59;101574.88;;;56.14;13.13
19553;BME280;9420;50.876;7.012;2023-04-30T10:39:27;101571.38;;;55.07;12.70
19553;BME280;9420;50.876;7.012;2023-04-30T10:42:01;101577.06;;;56.25;12.79
19553;BME280;9420;50.876;7.012;2023-04-30T10:44:33;101568.28;;;56.78;13.26
19553;BME280;9420;50.876;7.012;2023-04-30T10:47:02;101563.69;;;58.54;12.42
19553;BME280;9420;50.876;7.012;2023-04-30T10:49:29;101554.13;;;59.93;11.79
19553;BME280;9420;50.876;7.012;2023-04-30T10:51:59;101562.41;;;57.72;12.87
19553;BME280;9420;50.876;7.012;2023-04-30T10:54:30;101553.13;;;56.48;12.97
19553;BME280;9420;50.876;7.012;2023-04-30T10:57:09;101542.72;;;57.76;13.07
19553;BME280;9420;50.876;7.012;2023-04-30T10:59:41;101548.59;;;60.24;11.77
19553;BME280;9420;50.876;7.012;2023-04-30T11:02:14;101536.09;;;59.52;12.20
19553;BME280;9420;50.876;7.012;2023-04-30T11:05:11;101536.44;;;60.51;12.13
19553;BME280;9420;50.876;7.012;2023-04-30T11:07:47;101530.00;;;60.26;12.25
19553;BME280;9420;50.876;7.012;2023-04-30T11:10:15;101531.41;;;57.96;12.87
19553;BME280;9420;50.876;7.012;2023-04-30T11:12:48;101525.06;;;57.24;12.86
19553;BME280;9420;50.876;7.012;2023-04-30T11:15:19;101526.81;;;56.73;12.89
19553;BME280;9420;50.876;7.012;2023-04-30T11:17:48;101525.28;;;55.99;12.61
19553;BME280;9420;50.876;7.012;2023-04-30T11:20:20;101518.53;;;59.14;13.06
19553;BME280;9420;50.876;7.012;2023-04-30T11:23:07;101514.81;;;57.86;12.39
19553;BME280;9420;50.876;7.012;2023-04-30T11:25:40;101518.03;;;57.68;12.86
19553;BME280;9420;50.876;7.012;2023-04-30T11:28:13;101511.53;;;59.12;11.82
19553;BME280;9420;50.876;7.012;2023-04-30T11:30:50;101509.50;;;61.35;11.31
19553;BME280;9420;50.876;7.012;2023-04-30T11:33:19;101502.06;;;61.31;11.04
19553;BME280;9420;50.876;7.012;2023-04-30T11:35:47;101504.81;;;59.64;11.70
19553;BME280;9420;50.876;7.012;2023-04-30T11:38:19;101500.03;;;61.16;11.42
19553;BME280;9420;50.876;7.012;2023-04-30T11:40:48;101504.59;;;61.67;11.50
19553;BME280;9420;50.876;7.012;2023-04-30T11:43:25;101505.00;;;61.50;12.74
19553;BME280;9420;50.876;7.012;2023-04-30T11:46:06;101484.25;;;62.80;11.66
19553;BME280;9420;50.876;7.012;2023-04-30T11:48:35;101491.81;;;62.49;11.20
19553;BME280;9420;50.876;7.012;2023-04-30T11:51:04;101494.88;;;62.60;12.08
19553;BME280;9420;50.876;7.012;2023-04-30T11:53:32;101487.03;;;62.54;10.91
19553;BME280;9420;50.876;7.012;2023-04-30T11:56:03;101486.59;;;63.42;11.18
19553;BME280;9420;50.876;7.012;2023-04-30T11:58:34;101482.59;;;63.20;10.73
19553;BME280;9420;50.876;7.012;2023-04-30T12:01:04;101475.78;;;61.53;10.85
19553;BME280;9420;50.876;7.012;2023-04-30T12:03:39;101482.94;;;58.84;11.18
19553;BME280;9420;50.876;7.012;2023-04-30T12:06:09;101480.97;;;57.52;11.82
19553;BME280;9420;50.876;7.012;2023-04-30T12:08:37;101474.22;;;57.65;12.01
19553;BME280;9420;50.876;7.012;2023-04-30T12:11:19;101475.19;;;58.72;11.80
19553;BME280;9420;50.876;7.012;2023-04-30T12:13:51;101467.97;;;57.42;11.52
19553;BME280;9420;50.876;7.012;2023-04-30T12:16:19;101464.59;;;57.20;11.70
19553;BME280;9420;50.876;7.012;2023-04-30T12:18:46;101458.75;;;56.61;11.73
19553;BME280;9420;50.876;7.012;2023-04-30T12:21:14;101465.72;;;55.39;11.96
19553;BME280;9420;50.876;7.012;2023-04-30T12:23:42;101451.50;;;59.13;11.86
19553;BME280;9420;50.876;7.012;2023-04-30T12:26:09;101453.91;;;62.72;10.92
19553;BME280;9420;50.876;7.012;2023-04-30T12:28:36;101452.38;;;62.78;10.66
19553;BME280;9420;50.876;7.012;2023-04-30T12:31:03;101441.66;;;62.94;10.62
19553;BME280;9420;50.876;7.012;2023-04-30T12:33:32;101450.81;;;64.08;10.71
19553;BME280;9420;50.876;7.012;2023-04-30T12:35:59;101452.78;;;64.70;10.39
19553;BME280;9420;50.876;7.012;2023-04-30T12:38:26;101447.75;;;64.60;10.02
19553;BME280;9420;50.876;7.012;2023-04-30T12:40:53;101448.66;;;65.66;10.97
19553;BME280;9420;50.876;7.012;2023-04-30T12:43:22;101440.19;;;65.87;10.70
19553;BME280;9420;50.876;7.012;2023-04-30T12:45:51;101442.16;;;65.72;9.99
19553;BME280;9420;50.876;7.012;2023-04-30T12:48:20;101450.56;;;64.93;9.80
19553;BME280;9420;50.876;7.012;2023-04-30T12:50:52;101431.69;;;66.22;10.24
19553;BME280;9420;50.876;7.012;2023-04-30T12:53:20;101440.63;;;64.84;9.59
19553;BME280;9420;50.876;7.012;2023-04-30T12:56:07;101424.63;;;65.95;10.37
19553;BME280;9420;50.876;7.012;2023-04-30T12:58:35;101435.94;;;66.84;10.47
19553;BME280;9420;50.876;7.012;2023-04-30T13:01:02;101424.53;;;65.74;10.18
19553;BME280;9420;50.876;7.012;2023-04-30T13:03:29;101427.63;;;66.34;10.29
19553;BME280;9420;50.876;7.012;2023-04-30T13:05:57;101426.34;;;63.54;10.79
19553;BME280;9420;50.876;7.012;2023-04-30T13:08:27;101419.25;;;62.96;11.09
19553;BME280;9420;50.876;7.012;2023-04-30T13:10:54;101406.84;;;62.01;10.90